Terminal Aerodrome Forecast
Issued by NWS Shreveport, LA

Current Version | Previous Version | Text Only | Print | Product List | Glossary On
Versions: 1 2 3 4 5 6 7 8 9 10 11 12 13 14 15 16 17 18 19 20 21 22
000
FTUS44 KSHV 241720
TAFGGG
TAF
KGGG 241720Z 2418/2518 17014G22KT 4SM -TSRA BR OVC020CB
     FM242200 16015G25KT P6SM VCTS OVC025CB
     FM250100 17012KT 5SM BR OVC015
     FM251200 17010KT 3SM BR OVC011
     FM251600 17010KT P6SM OVC015=

USA.gov is the U.S. government's official web portal to all federal, state and local government web resources and services.